createdAt,value
2019-03-22T00:01:06.535Z,6.06
2019-03-22T00:03:35.932Z,5.97
2019-03-22T00:06:07.756Z,5.92
2019-03-22T00:08:38.280Z,5.88
2019-03-22T00:11:09.994Z,5.95
2019-03-22T00:13:40.747Z,5.91
2019-03-22T00:16:11.159Z,5.96
2019-03-22T00:18:40.523Z,5.87
2019-03-22T00:21:09.006Z,5.85
2019-03-22T00:23:38.527Z,5.76
2019-03-22T00:26:09.436Z,5.67
2019-03-22T00:28:38.945Z,5.62
2019-03-22T00:31:09.432Z,5.69
2019-03-22T00:33:39.812Z,5.72
2019-03-22T00:36:10.327Z,5.67
2019-03-22T00:38:40.740Z,5.67
2019-03-22T00:41:11.143Z,5.67
2019-03-22T00:43:43.440Z,5.62
2019-03-22T00:46:13.906Z,5.68
2019-03-22T00:48:44.439Z,5.69
2019-03-22T00:51:13.174Z,5.71
2019-03-22T00:53:42.753Z,5.66
2019-03-22T00:56:14.505Z,5.56
2019-03-22T00:58:46.163Z,5.48
2019-03-22T01:01:15.537Z,5.42
2019-03-22T01:03:45.932Z,5.42
2019-03-22T01:06:16.465Z,5.36
2019-03-22T01:08:48.653Z,5.28
2019-03-22T01:11:17.999Z,5.23
2019-03-22T01:13:48.401Z,5.17
2019-03-22T01:16:18.768Z,5.16
2019-03-22T01:18:49.306Z,5.08
2019-03-22T01:21:20.023Z,5.05
2019-03-22T01:23:50.546Z,5.05
2019-03-22T01:26:19.947Z,5.06
2019-03-22T01:28:50.423Z,5.01
2019-03-22T01:31:23.447Z,4.99
2019-03-22T01:33:52.825Z,4.98
2019-03-22T01:36:24.364Z,4.87
2019-03-22T01:38:53.744Z,4.85
2019-03-22T01:41:24.315Z,4.85
2019-03-22T01:43:54.679Z,4.81
2019-03-22T01:46:24.184Z,4.67
2019-03-22T01:48:53.544Z,4.74
2019-03-22T01:51:26.029Z,4.69
2019-03-22T01:53:55.411Z,4.69
2019-03-22T01:56:25.778Z,4.72
2019-03-22T01:58:54.619Z,4.73
2019-03-22T02:01:25.155Z,4.62
2019-03-22T02:03:54.664Z,4.62
2019-03-22T02:06:25.151Z,4.62
2019-03-22T02:08:55.638Z,4.60
2019-03-22T02:11:26.046Z,4.56
2019-03-22T02:13:55.415Z,4.53
2019-03-22T02:16:26.022Z,4.54
2019-03-22T02:18:56.440Z,4.51
2019-03-22T02:21:25.843Z,4.49
2019-03-22T02:23:55.377Z,4.56
2019-03-22T02:26:27.559Z,4.54
2019-03-22T02:28:57.946Z,4.57
2019-03-22T02:31:28.385Z,4.58
2019-03-22T02:34:00.754Z,4.53
2019-03-22T02:36:31.404Z,4.50
2019-03-22T02:39:00.785Z,4.46
2019-03-22T02:41:31.352Z,4.44
2019-03-22T02:44:00.739Z,4.42
2019-03-22T02:46:31.119Z,4.46
2019-03-22T02:48:59.624Z,4.43
2019-03-22T02:51:30.131Z,4.40
2019-03-22T02:53:59.512Z,4.30
2019-03-22T02:56:28.994Z,4.35
2019-03-22T02:58:59.577Z,4.31
2019-03-22T03:01:31.233Z,4.22
2019-03-22T03:04:01.638Z,4.21
2019-03-22T03:06:34.027Z,4.27
2019-03-22T03:09:04.632Z,4.30
2019-03-22T03:11:35.071Z,4.29
2019-03-22T03:14:04.512Z,4.28
2019-03-22T03:16:33.919Z,4.26
2019-03-22T03:19:04.291Z,4.22
2019-03-22T03:21:35.215Z,4.20
2019-03-22T03:24:04.614Z,4.19
2019-03-22T03:26:33.979Z,4.16
2019-03-22T03:29:04.448Z,4.19
2019-03-22T03:31:37.252Z,4.11
2019-03-22T03:34:07.759Z,4.00
2019-03-22T03:36:36.571Z,4.01
2019-03-22T03:39:09.724Z,4.01
2019-03-22T03:41:40.347Z,3.95
2019-03-22T03:44:11.516Z,3.89
2019-03-22T03:46:43.971Z,3.81
2019-03-22T03:49:16.352Z,3.85
2019-03-22T03:51:46.757Z,3.93
2019-03-22T03:54:17.377Z,3.91
2019-03-22T03:56:46.676Z,3.83
2019-03-22T03:59:17.043Z,3.78
2019-03-22T04:01:46.433Z,3.77
2019-03-22T04:04:16.809Z,3.80
2019-03-22T04:06:47.224Z,3.84
2019-03-22T04:09:17.637Z,3.74
2019-03-22T04:11:46.426Z,3.71
2019-03-22T04:14:16.963Z,3.73
2019-03-22T04:16:46.369Z,3.73
2019-03-22T04:19:16.746Z,3.70
2019-03-22T04:21:47.053Z,3.62
2019-03-22T04:24:16.518Z,3.66
2019-03-22T04:26:47.952Z,3.74
2019-03-22T04:29:18.908Z,3.78
2019-03-22T04:31:48.359Z,3.78
2019-03-22T04:34:18.899Z,3.74
2019-03-22T04:36:47.790Z,3.70
2019-03-22T04:39:17.268Z,3.69
2019-03-22T04:41:47.764Z,3.71
2019-03-22T04:44:18.274Z,3.70
2019-03-22T04:46:48.375Z,3.65
2019-03-22T04:49:22.326Z,3.63
2019-03-22T04:51:53.904Z,3.69
2019-03-22T04:54:24.850Z,3.68
2019-03-22T04:56:55.368Z,3.63
2019-03-22T04:59:26.383Z,3.65
2019-03-22T05:01:59.992Z,3.59
2019-03-22T05:04:30.091Z,3.53
2019-03-22T05:07:00.918Z,3.55
2019-03-22T05:09:35.283Z,3.58
2019-03-22T05:12:07.055Z,3.65
2019-03-22T05:14:40.243Z,3.69
2019-03-22T05:17:14.018Z,3.79
2019-03-22T05:19:46.527Z,3.87
2019-03-22T05:22:17.690Z,4.05
2019-03-22T05:24:47.974Z,4.41
2019-03-22T05:27:17.840Z,4.80
2019-03-22T05:29:50.298Z,5.29
2019-03-22T05:32:19.738Z,6.39
2019-03-22T05:34:49.163Z,6.92
2019-03-22T05:37:19.680Z,8.13
2019-03-22T05:39:52.085Z,9.71
2019-03-22T05:42:21.459Z,9.91
2019-03-22T05:44:51.900Z,10.71
2019-03-22T05:47:21.439Z,12.11
2019-03-22T05:49:53.178Z,13.47
2019-03-22T05:52:25.296Z,15.21
2019-03-22T05:54:54.641Z,15.77
2019-03-22T05:57:23.154Z,16.08
2019-03-22T05:59:52.531Z,14.93
2019-03-22T06:02:23.024Z,14.34
2019-03-22T06:04:51.829Z,15.56
2019-03-22T06:07:21.238Z,16.30
2019-03-22T06:09:51.594Z,15.88
2019-03-22T06:12:22.216Z,14.63
2019-03-22T06:14:52.730Z,15.20
2019-03-22T06:17:22.208Z,16.60
2019-03-22T06:19:51.586Z,18.46
2019-03-22T06:22:22.264Z,18.26
2019-03-22T06:24:52.787Z,16.75
2019-03-22T06:27:23.153Z,17.86
2019-03-22T06:29:54.660Z,19.74
2019-03-22T06:32:24.343Z,20.99
2019-03-22T06:34:54.814Z,19.74
2019-03-22T06:37:24.223Z,21.79
2019-03-22T06:39:54.702Z,23.37
2019-03-22T06:42:24.195Z,24.90
2019-03-22T06:44:56.546Z,25.92
2019-03-22T06:47:27.065Z,24.70
2019-03-22T06:49:57.390Z,25.95
2019-03-22T06:52:27.995Z,26.61
2019-03-22T06:54:58.232Z,25.57
2019-03-22T06:57:27.669Z,25.17
2019-03-22T07:00:05.804Z,26.41
2019-03-22T07:02:27.648Z,27.33
2019-03-22T07:04:56.156Z,26.57
2019-03-22T07:07:26.745Z,25.67
2019-03-22T07:09:57.252Z,25.99
2019-03-22T07:12:27.641Z,25.64
2019-03-22T07:15:01.459Z,26.58
2019-03-22T07:17:32.132Z,24.95
2019-03-22T07:20:02.532Z,22.78
2019-03-22T07:22:34.287Z,22.04
2019-03-22T07:25:04.804Z,21.30
2019-03-22T07:27:35.270Z,22.33
2019-03-22T07:30:17.961Z,20.88
2019-03-22T07:32:39.675Z,20.66
2019-03-22T07:35:09.497Z,20.10
2019-03-22T07:37:38.982Z,22.03
2019-03-22T07:40:09.829Z,22.21
2019-03-22T07:42:39.364Z,22.88
2019-03-22T07:45:11.936Z,20.01
2019-03-22T07:47:42.298Z,20.35
2019-03-22T07:50:14.227Z,20.16
2019-03-22T07:52:44.595Z,20.87
2019-03-22T07:55:14.069Z,22.33
2019-03-22T07:57:44.623Z,22.60
2019-03-22T08:00:16.049Z,22.88
2019-03-22T08:02:46.417Z,22.10
2019-03-22T08:05:15.901Z,22.70
2019-03-22T08:07:46.859Z,22.93
2019-03-22T08:10:18.578Z,23.70
2019-03-22T08:12:47.423Z,23.33
2019-03-22T08:15:29.170Z,23.08
2019-03-22T08:17:59.536Z,22.13
2019-03-22T08:20:29.119Z,20.98
2019-03-22T08:22:59.637Z,20.92
2019-03-22T08:25:29.103Z,21.35
2019-03-22T08:27:58.465Z,21.67
2019-03-22T08:30:42.128Z,21.73
2019-03-22T08:33:01.459Z,21.62
2019-03-22T08:35:30.909Z,22.12
2019-03-22T08:38:00.523Z,22.18
2019-03-22T08:40:29.953Z,23.48
2019-03-22T08:43:02.419Z,22.73
2019-03-22T08:45:31.900Z,23.24
2019-03-22T08:48:01.308Z,22.95
2019-03-22T08:50:30.708Z,22.49
2019-03-22T08:53:00.234Z,22.06
2019-03-22T08:55:30.619Z,21.52
2019-03-22T08:58:01.034Z,21.79
2019-03-22T09:00:39.090Z,22.07
2019-03-22T09:03:03.270Z,22.22
2019-03-22T09:05:32.741Z,22.75
2019-03-22T09:08:02.132Z,21.49
2019-03-22T09:10:31.549Z,22.19
2019-03-22T09:13:01.144Z,22.25
2019-03-22T09:15:41.143Z,22.13
2019-03-22T09:18:05.286Z,21.75
2019-03-22T09:20:34.657Z,21.40
2019-03-22T09:23:04.142Z,20.80
2019-03-22T09:25:33.504Z,20.97
2019-03-22T09:28:02.949Z,21.08
2019-03-22T09:30:33.386Z,21.74
2019-03-22T09:33:02.831Z,20.84
2019-03-22T09:35:33.252Z,20.37
2019-03-22T09:38:12.436Z,20.44
2019-03-22T09:40:33.284Z,21.60
2019-03-22T09:43:03.716Z,21.93
2019-03-22T09:45:35.753Z,20.81
2019-03-22T09:48:06.395Z,20.44
2019-03-22T09:50:36.827Z,20.49
2019-03-22T09:53:06.325Z,21.08
2019-03-22T09:55:38.787Z,20.75
2019-03-22T09:58:10.135Z,19.91
2019-03-22T10:00:39.689Z,20.87
2019-03-22T10:03:09.104Z,21.35
2019-03-22T10:05:39.462Z,20.97
2019-03-22T10:08:08.806Z,20.98
2019-03-22T10:10:39.746Z,21.03
2019-03-22T10:13:11.516Z,21.20
2019-03-22T10:15:42.118Z,20.74
2019-03-22T10:18:12.437Z,20.93
2019-03-22T10:20:42.830Z,20.77
2019-03-22T10:23:12.207Z,20.77
2019-03-22T10:25:41.639Z,20.60
2019-03-22T10:28:12.023Z,20.33
2019-03-22T10:30:42.444Z,20.28
2019-03-22T10:33:22.036Z,20.51
2019-03-22T10:35:42.983Z,20.90
2019-03-22T10:38:16.322Z,21.15
2019-03-22T10:40:44.709Z,21.22
2019-03-22T10:43:15.092Z,21.03
2019-03-22T10:45:43.978Z,21.31
2019-03-22T10:48:13.653Z,21.36
2019-03-22T10:50:43.010Z,21.33
2019-03-22T10:53:16.826Z,21.06
2019-03-22T10:55:47.335Z,20.97
2019-03-22T10:58:21.180Z,21.26
2019-03-22T11:00:51.639Z,21.09
2019-03-22T11:03:21.059Z,21.29
2019-03-22T11:05:50.632Z,21.10
2019-03-22T11:08:21.026Z,21.06
2019-03-22T11:10:53.312Z,20.86
2019-03-22T11:13:23.715Z,20.88
2019-03-22T11:15:54.103Z,20.66
2019-03-22T11:18:24.536Z,21.04
2019-03-22T11:21:04.528Z,21.04
2019-03-22T11:23:26.015Z,21.11
2019-03-22T11:26:03.779Z,21.12
2019-03-22T11:28:27.521Z,20.94
2019-03-22T11:31:04.672Z,20.94
2019-03-22T11:33:30.734Z,21.04
2019-03-22T11:36:00.234Z,21.01
2019-03-22T11:38:30.715Z,21.32
2019-03-22T11:41:00.105Z,21.37
2019-03-22T11:43:33.596Z,21.42
2019-03-22T11:46:15.708Z,21.18
2019-03-22T11:48:49.144Z,21.17
2019-03-22T11:51:19.548Z,21.27
2019-03-22T11:53:51.342Z,20.92
2019-03-22T11:56:21.726Z,20.93
2019-03-22T11:58:54.100Z,20.64
2019-03-22T12:01:24.505Z,21.00
2019-03-22T12:03:54.927Z,21.04
2019-03-22T12:06:27.277Z,20.94
2019-03-22T12:08:57.812Z,20.81
2019-03-22T12:11:28.222Z,20.92
2019-03-22T12:14:00.145Z,21.00
2019-03-22T12:16:29.673Z,21.02
2019-03-22T12:19:00.373Z,21.30
2019-03-22T12:21:30.769Z,21.19
2019-03-22T12:24:00.186Z,20.88
2019-03-22T12:26:29.615Z,20.68
2019-03-22T12:29:00.729Z,21.17
2019-03-22T12:31:30.150Z,21.17
2019-03-22T12:34:00.524Z,21.08
2019-03-22T12:39:00.277Z,21.10
2019-03-22T12:41:30.684Z,20.90
2019-03-22T12:44:01.084Z,20.83
2019-03-22T12:46:30.659Z,20.51
2019-03-22T12:49:00.017Z,20.54
2019-03-22T12:51:28.961Z,20.37
2019-03-22T12:53:57.466Z,20.16
2019-03-22T12:56:25.949Z,20.26
2019-03-22T12:58:58.402Z,20.14
2019-03-22T13:01:31.418Z,20.52
2019-03-22T13:04:01.835Z,20.32
2019-03-22T13:06:32.763Z,20.77
2019-03-22T13:09:03.159Z,20.95
2019-03-22T13:11:33.619Z,20.95
2019-03-22T13:14:03.083Z,21.17
2019-03-22T13:16:33.659Z,20.78
2019-03-22T13:19:03.049Z,20.92
2019-03-22T13:21:33.519Z,20.92
2019-03-22T13:24:04.914Z,20.50
2019-03-22T13:26:35.290Z,20.50
2019-03-22T13:29:06.609Z,20.27
2019-03-22T13:31:38.258Z,20.26
2019-03-22T13:34:08.626Z,20.25
2019-03-22T13:36:38.929Z,20.25
2019-03-22T13:39:10.217Z,20.13
2019-03-22T13:41:39.606Z,19.97
2019-03-22T13:44:09.975Z,20.24
2019-03-22T13:46:40.809Z,20.29
2019-03-22T13:49:11.420Z,20.44
2019-03-22T13:51:41.809Z,20.67
2019-03-22T13:54:12.231Z,20.56
2019-03-22T13:56:41.714Z,20.51
2019-03-22T13:59:12.104Z,20.40
2019-03-22T14:01:42.636Z,20.61
2019-03-22T14:04:11.989Z,20.66
2019-03-22T14:06:42.403Z,20.68
2019-03-22T14:09:12.179Z,20.56
2019-03-22T14:11:41.667Z,20.48
2019-03-22T14:14:12.553Z,20.57
2019-03-22T14:16:42.955Z,20.56
2019-03-22T14:19:12.478Z,20.73
2019-03-22T14:21:42.802Z,20.32
2019-03-22T14:24:13.595Z,20.41
2019-03-22T14:26:44.056Z,20.21
2019-03-22T14:29:16.353Z,20.21
2019-03-22T14:31:48.315Z,20.32
2019-03-22T14:34:18.734Z,20.39
2019-03-22T14:36:49.602Z,20.54
2019-03-22T14:39:19.946Z,20.44
2019-03-22T14:41:50.365Z,20.31
2019-03-22T14:44:25.223Z,20.02
2019-03-22T14:46:51.944Z,19.96
2019-03-22T14:49:22.314Z,20.08
2019-03-22T14:51:51.714Z,20.01
2019-03-22T14:54:21.081Z,19.76
2019-03-22T14:56:51.574Z,19.71
2019-03-22T14:59:22.044Z,19.59
2019-03-22T15:01:52.309Z,19.66
2019-03-22T15:04:21.182Z,19.62
2019-03-22T15:06:50.588Z,19.47
2019-03-22T15:09:21.054Z,19.51
2019-03-22T15:11:51.356Z,19.46
2019-03-22T15:14:22.188Z,19.40
2019-03-22T15:17:12.352Z,19.39
2019-03-22T15:19:59.552Z,19.33
2019-03-22T15:22:31.131Z,19.40
2019-03-22T15:25:01.614Z,19.33
2019-03-22T15:27:36.523Z,19.12
2019-03-22T15:30:13.915Z,19.19
2019-03-22T15:32:47.714Z,19.25
2019-03-22T15:35:20.757Z,19.19
2019-03-22T15:37:51.986Z,19.02
2019-03-22T15:40:22.433Z,19.15
2019-03-22T15:42:53.892Z,19.00
2019-03-22T15:45:26.269Z,19.01
2019-03-22T15:47:55.636Z,18.99
2019-03-22T15:50:26.138Z,18.88
2019-03-22T15:52:55.620Z,18.89
2019-03-22T15:55:26.010Z,18.87
2019-03-22T15:57:55.382Z,18.81
2019-03-22T16:00:25.576Z,18.84
2019-03-22T16:02:56.879Z,18.61
2019-03-22T16:05:27.529Z,18.60
2019-03-22T16:07:59.088Z,18.58
2019-03-22T16:10:28.609Z,18.55
2019-03-22T16:12:58.060Z,18.54
2019-03-22T16:15:28.536Z,18.55
2019-03-22T16:17:57.887Z,18.54
2019-03-22T16:20:28.404Z,18.50
2019-03-22T16:22:57.884Z,18.43
2019-03-22T16:25:28.270Z,18.36
2019-03-22T16:27:57.789Z,18.32
2019-03-22T16:30:28.346Z,18.32
2019-03-22T16:32:59.069Z,18.25
2019-03-22T16:35:28.473Z,18.21
2019-03-22T16:37:58.937Z,18.10
2019-03-22T16:40:28.527Z,18.09
2019-03-22T16:42:58.866Z,18.11
2019-03-22T16:45:40.179Z,18.03
2019-03-22T16:48:09.804Z,17.98
2019-03-22T16:50:39.439Z,17.94
2019-03-22T16:53:08.930Z,17.90
2019-03-22T16:55:37.833Z,17.84
2019-03-22T16:58:07.091Z,17.75
2019-03-22T17:00:36.659Z,17.73
2019-03-22T17:03:09.943Z,17.68
2019-03-22T17:05:39.455Z,17.60
2019-03-22T17:08:10.031Z,17.54
2019-03-22T17:10:42.009Z,17.50
2019-03-22T17:13:12.655Z,17.39
2019-03-22T17:15:43.531Z,17.35
2019-03-22T17:18:13.105Z,17.42
2019-03-22T17:20:43.707Z,17.31
2019-03-22T17:23:14.774Z,17.19
2019-03-22T17:25:44.411Z,17.14
2019-03-22T17:28:16.031Z,16.97
2019-03-22T17:30:47.982Z,16.98
2019-03-22T17:33:18.989Z,16.91
2019-03-22T17:35:50.957Z,16.87
2019-03-22T17:38:21.291Z,16.78
2019-03-22T17:40:52.211Z,16.68
2019-03-22T17:43:23.959Z,16.51
2019-03-22T17:45:54.382Z,16.39
2019-03-22T17:48:25.878Z,16.28
2019-03-22T17:50:56.385Z,16.21
2019-03-22T17:53:24.885Z,16.26
2019-03-22T17:55:57.278Z,16.21
2019-03-22T17:58:29.074Z,15.96
2019-03-22T18:00:58.556Z,15.76
2019-03-22T18:03:28.881Z,15.62
2019-03-22T18:06:00.850Z,15.48
2019-03-22T18:08:31.303Z,15.35
2019-03-22T18:11:03.391Z,15.16
2019-03-22T18:13:33.744Z,15.00
2019-03-22T18:16:03.252Z,14.95
2019-03-22T18:18:33.658Z,14.88
2019-03-22T18:21:03.124Z,14.84
2019-03-22T18:23:35.884Z,14.74
2019-03-22T18:26:03.758Z,14.69
2019-03-22T18:28:34.124Z,14.61
2019-03-22T18:31:04.521Z,14.60
2019-03-22T18:33:35.827Z,14.51
2019-03-22T18:36:06.281Z,14.44
2019-03-22T18:38:37.623Z,14.34
2019-03-22T18:41:10.949Z,14.20
2019-03-22T18:43:39.730Z,14.11
2019-03-22T18:46:10.320Z,14.07
2019-03-22T18:48:39.702Z,14.00
2019-03-22T18:51:09.254Z,13.99
2019-03-22T18:53:39.629Z,13.86
2019-03-22T18:56:10.049Z,13.77
2019-03-22T18:58:39.561Z,13.65
2019-03-22T19:01:10.025Z,13.54
2019-03-22T19:03:38.856Z,13.55
2019-03-22T19:06:07.908Z,13.48
2019-03-22T19:08:38.447Z,13.38
2019-03-22T19:11:08.922Z,13.35
2019-03-22T19:13:38.335Z,13.23
2019-03-22T19:16:08.914Z,13.10
2019-03-22T19:18:38.302Z,13.10
2019-03-22T19:21:08.665Z,12.98
2019-03-22T19:23:39.035Z,12.92
2019-03-22T19:26:09.424Z,12.81
2019-03-22T19:28:43.013Z,12.75
2019-03-22T19:31:13.421Z,12.75
2019-03-22T19:33:42.895Z,12.63
2019-03-22T19:36:12.291Z,12.62
2019-03-22T19:38:41.682Z,12.50
2019-03-22T19:41:12.023Z,12.41
2019-03-22T19:43:41.533Z,12.38
2019-03-22T19:46:11.987Z,12.34
2019-03-22T19:48:41.392Z,12.31
2019-03-22T19:51:10.188Z,12.29
2019-03-22T19:53:40.618Z,12.15
2019-03-22T19:56:12.892Z,12.08
2019-03-22T19:58:42.287Z,12.02
2019-03-22T20:01:12.876Z,12.02
2019-03-22T20:03:43.366Z,12.05
2019-03-22T20:06:15.063Z,12.01
2019-03-22T20:08:46.689Z,11.89
2019-03-22T20:11:17.101Z,11.80
2019-03-22T20:13:47.436Z,11.76
2019-03-22T20:16:19.372Z,11.68
2019-03-22T20:18:48.784Z,11.63
2019-03-22T20:21:19.127Z,11.53
2019-03-22T20:23:53.736Z,11.38
2019-03-22T20:26:22.030Z,11.40
2019-03-22T20:28:52.444Z,11.40
2019-03-22T20:31:22.766Z,11.31
2019-03-22T20:33:52.221Z,11.28
2019-03-22T20:36:24.623Z,11.18
2019-03-22T20:38:55.310Z,11.17
2019-03-22T20:41:25.682Z,11.09
2019-03-22T20:43:56.185Z,10.96
2019-03-22T20:46:26.640Z,10.95
2019-03-22T20:48:57.259Z,10.91
2019-03-22T20:51:26.832Z,10.85
2019-03-22T20:53:57.169Z,10.71
2019-03-22T20:56:26.518Z,10.66
2019-03-22T20:58:55.106Z,10.59
2019-03-22T21:01:25.514Z,10.42
2019-03-22T21:03:54.990Z,10.34
2019-03-22T21:06:23.819Z,10.35
2019-03-22T21:08:53.246Z,10.36
2019-03-22T21:11:23.574Z,10.20
2019-03-22T21:13:54.038Z,10.24
2019-03-22T21:16:24.393Z,10.06
2019-03-22T21:18:53.981Z,9.97
2019-03-22T21:21:28.013Z,10.00
2019-03-22T21:23:54.510Z,10.02
2019-03-22T21:26:24.915Z,9.90
2019-03-22T21:28:55.247Z,9.97
2019-03-22T21:31:25.785Z,9.96
2019-03-22T21:33:55.194Z,9.86
2019-03-22T21:36:25.494Z,9.93
2019-03-22T21:38:54.930Z,9.93
2019-03-22T21:41:25.324Z,9.90
2019-03-22T21:43:55.826Z,9.84
2019-03-22T21:46:26.320Z,9.92
2019-03-22T21:48:56.788Z,9.80
2019-03-22T21:51:28.939Z,9.79
2019-03-22T21:54:02.882Z,9.80
2019-03-22T21:56:32.391Z,9.76
2019-03-22T21:59:02.768Z,9.70
2019-03-22T22:01:33.165Z,9.73
2019-03-22T22:04:02.563Z,9.72
2019-03-22T22:06:31.998Z,9.74
2019-03-22T22:09:02.400Z,9.70
2019-03-22T22:11:34.254Z,9.66
2019-03-22T22:14:04.763Z,9.59
2019-03-22T22:16:35.291Z,9.50
2019-03-22T22:19:07.664Z,9.43
2019-03-22T22:21:38.030Z,9.35
2019-03-22T22:24:08.494Z,9.33
2019-03-22T22:26:38.959Z,9.34
2019-03-22T22:29:09.604Z,9.28
2019-03-22T22:31:39.984Z,9.21
2019-03-22T22:34:10.417Z,9.12
2019-03-22T22:36:39.881Z,9.03
2019-03-22T22:39:09.281Z,9.05
2019-03-22T22:41:39.660Z,8.83
2019-03-22T22:44:10.406Z,8.85
2019-03-22T22:46:40.781Z,8.87
2019-03-22T22:49:10.179Z,8.86
2019-03-22T22:51:40.761Z,8.84
2019-03-22T22:54:10.154Z,8.84
2019-03-22T22:56:39.510Z,8.79
2019-03-22T22:59:11.877Z,8.80
2019-03-22T23:01:40.755Z,8.77
2019-03-22T23:04:11.203Z,8.71
2019-03-22T23:06:41.716Z,8.66
2019-03-22T23:09:12.119Z,8.61
2019-03-22T23:11:41.527Z,8.52
2019-03-22T23:14:10.946Z,8.51
2019-03-22T23:16:44.694Z,8.43
2019-03-22T23:19:15.055Z,8.41
2019-03-22T23:21:45.637Z,8.36
2019-03-22T23:24:15.983Z,8.31
2019-03-22T23:26:45.538Z,8.31
2019-03-22T23:29:15.002Z,8.31
2019-03-22T23:31:45.781Z,8.27
2019-03-22T23:34:16.145Z,8.26
2019-03-22T23:36:46.809Z,8.24
2019-03-22T23:39:17.509Z,8.20
2019-03-22T23:41:46.882Z,8.11
2019-03-22T23:44:17.274Z,8.11
2019-03-22T23:46:49.488Z,8.09
2019-03-22T23:49:20.050Z,8.10
2019-03-22T23:51:49.550Z,8.12
2019-03-22T23:54:19.014Z,8.06
2019-03-22T23:56:49.365Z,8.08
2019-03-22T23:59:19.855Z,8.05
